Time;durP1;ratioP1;P1;durP2;ratioP2;P2;SDS_P1;SDS_P2;PMS_P1;PMS_P2;Temp;Humidity;BMP_temperature;BMP_pressure;BME280_temperature;BME280_humidity;BME280_pressure;Samples;Min_cycle;Max_cycle;Signal;HPM_P1;HPM_P2
2022/10/19 00:01:03;;;;;;;0.70;0.10;;;;;;;5.02;77.27;101888.59;5096532;28;20031;-73
2022/10/19 00:03:28;;;;;;;0.55;0.10;;;;;;;5.05;77.68;101899.16;5096891;28;20030;-74
2022/10/19 00:05:54;;;;;;;0.32;0.03;;;;;;;5.07;77.26;101894.63;5115423;28;20046;-72
2022/10/19 00:08:19;;;;;;;0.95;0.10;;;;;;;4.97;77.94;101911.91;5115068;28;20128;-73
2022/10/19 00:10:45;;;;;;;0.13;0.03;;;;;;;4.96;77.78;101904.84;5096884;28;20064;-73
2022/10/19 00:13:11;;;;;;;0.35;0.10;;;;;;;4.88;77.98;101920.28;5114871;28;20024;-73
2022/10/19 00:15:40;;;;;;;0.85;0.10;;;;;;;4.86;77.88;101908.78;5096532;28;20108;-74
2022/10/19 00:18:07;;;;;;;2.67;0.10;;;;;;;4.86;77.91;101926.56;5115087;28;20031;-72
2022/10/19 00:20:35;;;;;;;0.77;0.10;;;;;;;4.86;78.02;101935.41;5097072;28;20030;-71
2022/10/19 00:23:00;;;;;;;0.40;0.10;;;;;;;4.88;77.83;101930.94;5114638;28;20059;-72
2022/10/19 00:25:26;;;;;;;2.38;0.10;;;;;;;4.97;77.61;101927.91;5114535;28;20054;-72
2022/10/19 00:27:52;;;;;;;1.15;0.05;;;;;;;4.94;77.11;101938.69;5115190;28;20032;-71
2022/10/19 00:30:17;;;;;;;0.30;0.00;;;;;;;4.87;76.90;101947.84;5096789;28;20035;-72
2022/10/19 00:32:43;;;;;;;5.45;1.85;;;;;;;4.94;77.21;101914.69;5095896;28;20023;-71
2022/10/19 00:35:09;;;;;;;2.10;0.00;;;;;;;4.86;76.79;101935.41;5096777;28;20055;-72
2022/10/19 00:37:34;;;;;;;1.45;0.20;;;;;;;4.85;76.11;101928.34;5096529;28;20024;-73
2022/10/19 00:40:00;;;;;;;2.58;0.13;;;;;;;4.73;77.11;101928.84;5096442;28;20027;-72
2022/10/19 00:42:25;;;;;;;1.85;0.43;;;;;;;4.67;76.55;101935.25;5115014;28;20479;-71
2022/10/19 00:44:51;;;;;;;0.32;0.10;;;;;;;4.69;76.45;101937.84;5114359;28;20031;-72
2022/10/19 00:47:21;;;;;;;0.60;0.00;;;;;;;4.69;76.84;101938.72;5113973;28;20023;-71
2022/10/19 00:49:47;;;;;;;2.78;0.10;;;;;;;4.63;76.16;101949.59;5114522;28;20034;-72
2022/10/19 00:52:16;;;;;;;1.85;0.10;;;;;;;4.65;76.00;101952.22;5114223;28;20451;-72
2022/10/19 00:54:45;;;;;;;1.50;0.50;;;;;;;4.61;76.05;101939.94;5114107;28;20022;-70
2022/10/19 00:57:11;;;;;;;1.13;0.10;;;;;;;4.60;76.06;101955.06;5113748;28;20031;-72
2022/10/19 00:59:40;;;;;;;0.52;0.00;;;;;;;4.59;75.69;101963.09;5113752;28;20468;-72
2022/10/19 01:02:06;;;;;;;0.73;0.10;;;;;;;4.60;76.07;101975.50;5113838;28;20028;-71
2022/10/19 01:04:36;;;;;;;0.60;0.00;;;;;;;4.61;76.02;101963.91;5113869;28;20055;-72
2022/10/19 01:07:04;;;;;;;2.58;0.13;;;;;;;4.51;76.31;101972.22;5095781;28;20030;-74
2022/10/19 01:09:29;;;;;;;0.68;0.00;;;;;;;4.52;76.02;101979.28;5096186;28;20441;-72
2022/10/19 01:12:07;;;;;;;2.28;0.57;;;;;;;4.49;76.12;101968.75;5114493;28;20068;-71
2022/10/19 01:15:02;;;;;;;1.75;0.10;;;;;;;4.47;76.11;101981.25;5113920;28;20045;-72
2022/10/19 01:17:46;;;;;;;3.97;0.20;;;;;;;4.47;76.24;101985.72;5113759;28;20107;-70
2022/10/19 01:20:49;;;;;;;0.40;0.10;;;;;;;4.47;76.04;101981.25;5095422;28;20497;-71
2022/10/19 01:23:36;;;;;;;2.70;0.20;;;;;;;4.45;76.06;101988.44;5109667;28;20122;-71
2022/10/19 01:26:43;;;;;;;8.23;0.98;;;;;;;4.43;76.00;101982.28;5096073;28;20046;-72
2022/10/19 01:29:43;;;;;;;1.33;0.03;;;;;;;4.42;76.75;101991.22;5095023;28;20024;-71
2022/10/19 01:32:32;;;;;;;2.15;0.10;;;;;;;4.37;76.76;101992.31;5113333;28;20028;-71
2022/10/19 01:35:42;;;;;;;5.45;0.30;;;;;;;4.45;76.58;101999.09;5098518;28;20054;-71
2022/10/19 01:38:34;;;;;;;0.20;0.10;;;;;;;4.31;77.03;101998.69;4994315;28;20036;-71
2022/10/19 01:41:27;;;;;;;2.08;0.10;;;;;;;4.37;76.37;101998.50;5091801;28;20100;-71
2022/10/19 01:44:36;;;;;;;1.65;0.10;;;;;;;4.32;76.72;101997.75;5113026;28;20087;-72
2022/10/19 01:47:09;;;;;;;0.10;0.03;;;;;;;4.33;76.39;101988.84;5094856;28;20498;-72
2022/10/19 01:49:42;;;;;;;0.10;0.00;;;;;;;4.25;76.80;101995.38;5113513;28;20034;-71
2022/10/19 01:52:11;;;;;;;1.42;0.50;;;;;;;4.21;77.02;101999.94;5113194;28;20482;-71
2022/10/19 01:54:53;;;;;;;0.45;0.10;;;;;;;4.18;77.15;102000.88;5095111;28;20438;-72
2022/10/19 01:57:25;;;;;;;0.40;0.30;;;;;;;4.13;77.64;101992.19;5094477;28;20031;-71
2022/10/19 01:59:52;;;;;;;2.25;0.10;;;;;;;4.11;77.33;101994.03;5071886;28;20044;-72
2022/10/19 02:02:19;;;;;;;1.05;0.10;;;;;;;4.14;77.56;101993.06;5072215;28;20107;-71
2022/10/19 02:04:48;;;;;;;0.57;0.10;;;;;;;4.10;77.43;102004.75;5072394;28;20127;-71
2022/10/19 02:07:15;;;;;;;2.28;0.10;;;;;;;4.08;77.67;101994.16;5070900;28;20020;-72
2022/10/19 02:09:40;;;;;;;2.45;0.15;;;;;;;4.04;77.68;101996.97;5072106;28;20119;-71
2022/10/19 02:12:10;;;;;;;0.95;0.10;;;;;;;4.01;77.93;101994.41;5072552;28;20477;-72
2022/10/19 02:14:43;;;;;;;1.73;0.05;;;;;;;4.00;78.42;102000.63;5070812;28;20521;-72
2022/10/19 02:17:12;;;;;;;0.10;0.00;;;;;;;4.00;78.15;102003.31;5070336;28;20066;-70
2022/10/19 02:19:38;;;;;;;2.83;0.05;;;;;;;3.94;78.83;102017.69;5072226;28;20024;-71
2022/10/19 02:22:05;;;;;;;0.30;0.00;;;;;;;4.00;78.37;102011.28;5070902;28;20111;-72
2022/10/19 02:24:30;;;;;;;0.30;0.15;;;;;;;3.93;78.54;102022.16;5071974;28;20039;-72
2022/10/19 02:26:57;;;;;;;0.45;0.10;;;;;;;3.95;78.64;102018.56;5071958;28;20028;-71
2022/10/19 02:29:23;;;;;;;0.63;0.00;;;;;;;3.96;78.25;102017.63;5072187;28;20020;-71
2022/10/19 02:31:48;;;;;;;3.55;0.08;;;;;;;3.91;78.12;102021.31;5070955;28;20029;-71
2022/10/19 02:34:14;;;;;;;3.72;0.20;;;;;;;3.86;78.60;102028.59;5072063;28;20032;-71
2022/10/19 02:36:40;;;;;;;5.05;0.10;;;;;;;3.89;78.46;102022.31;5070629;28;20037;-73
2022/10/19 02:39:07;;;;;;;0.57;0.10;;;;;;;3.87;78.01;102027.69;5072081;28;20096;-71
2022/10/19 02:41:41;;;;;;;1.10;0.05;;;;;;;3.84;78.25;102024.22;5070594;28;20024;-71
2022/10/19 02:44:17;;;;;;;0.40;0.00;;;;;;;3.85;78.14;102032.16;5071931;28;20107;-73
2022/10/19 02:46:45;;;;;;;0.73;0.00;;;;;;;3.75;78.68;102028.06;5071713;28;20524;-73
2022/10/19 02:49:12;;;;;;;0.88;0.10;;;;;;;3.74;79.25;102026.31;5071804;28;20043;-71
2022/10/19 02:51:53;;;;;;;0.40;0.05;;;;;;;3.74;78.98;102015.69;5072375;28;20025;-70
2022/10/19 02:54:19;;;;;;;2.42;0.17;;;;;;;3.73;79.25;102032.56;5070314;28;20033;-73
2022/10/19 02:56:45;;;;;;;2.90;0.03;;;;;;;3.69;79.04;102028.22;5075510;28;20062;-71
2022/10/19 02:59:10;;;;;;;3.13;0.30;;;;;;;3.67;79.72;102035.38;5102900;28;20044;-71
2022/10/19 03:01:36;;;;;;;0.28;0.03;;;;;;;3.65;79.70;102034.56;5116498;28;20337;-72
2022/10/19 03:04:01;;;;;;;0.98;0.10;;;;;;;3.63;79.57;102039.94;5116389;28;20028;-71
2022/10/19 03:06:27;;;;;;;0.93;0.05;;;;;;;3.60;79.91;102039.16;5097934;28;20045;-72
2022/10/19 03:08:53;;;;;;;2.80;0.20;;;;;;;3.55;80.11;102046.44;5116210;28;20024;-72
2022/10/19 03:11:18;;;;;;;1.65;0.10;;;;;;;3.60;80.05;102039.16;5097665;28;20403;-73
2022/10/19 03:13:44;;;;;;;0.63;0.00;;;;;;;3.53;80.19;102038.50;5098057;28;20028;-73
2022/10/19 03:16:11;;;;;;;0.60;0.00;;;;;;;3.64;80.35;102035.50;5097932;28;20027;-72
2022/10/19 03:18:37;;;;;;;0.30;0.00;;;;;;;3.58;80.30;102035.69;5116015;28;20032;-71
2022/10/19 03:21:11;;;;;;;1.52;0.10;;;;;;;3.57;80.34;102036.63;5097395;28;20053;-72
2022/10/19 03:23:38;;;;;;;2.95;0.20;;;;;;;3.54;80.73;102028.72;5116150;28;20484;-72
2022/10/19 03:26:05;;;;;;;1.05;0.30;;;;;;;3.59;80.27;102042.75;5097776;28;20068;-72
2022/10/19 03:28:31;;;;;;;0.55;0.10;;;;;;;3.55;80.99;102051.75;5097512;28;20051;-73
2022/10/19 03:30:56;;;;;;;3.33;0.20;;;;;;;3.57;80.79;102061.41;5097249;28;20065;-74
2022/10/19 03:33:23;;;;;;;0.10;0.00;;;;;;;3.56;80.34;102053.50;5097500;28;20024;-72
2022/10/19 03:35:48;;;;;;;2.40;0.20;;;;;;;3.55;80.23;102057.06;5115688;28;20035;-72
2022/10/19 03:38:14;;;;;;;2.78;0.00;;;;;;;3.59;80.42;102050.72;5115475;28;20039;-72
2022/10/19 03:40:40;;;;;;;0.20;0.10;;;;;;;3.53;80.78;102059.78;5115324;28;20023;-73
2022/10/19 03:43:05;;;;;;;0.45;0.10;;;;;;;3.51;80.29;102058.91;5115686;28;20032;-74
2022/10/19 03:45:31;;;;;;;1.55;0.10;;;;;;;3.56;80.43;102069.44;5115575;28;20484;-71
2022/10/19 03:47:57;;;;;;;0.03;0.00;;;;;;;3.49;80.63;102071.41;5115718;28;20894;-73
2022/10/19 03:50:23;;;;;;;2.95;0.10;;;;;;;3.42;80.66;102079.63;5115165;28;20111;-72
2022/10/19 03:52:48;;;;;;;0.20;0.17;;;;;;;3.45;80.91;102080.41;5115320;28;20115;-72
2022/10/19 03:55:15;;;;;;;2.67;0.10;;;;;;;3.43;80.88;102076.03;5096704;28;20023;-73
2022/10/19 03:57:41;;;;;;;6.20;0.20;;;;;;;3.42;80.76;102082.28;5096956;28;20035;-73
2022/10/19 04:00:07;;;;;;;3.85;0.10;;;;;;;3.42;80.98;102082.28;5096805;28;20036;-72
2022/10/19 04:02:33;;;;;;;0.40;0.08;;;;;;;3.39;81.32;102082.38;5097055;28;20400;-72
2022/10/19 04:04:58;;;;;;;4.55;0.20;;;;;;;3.35;81.77;102086.00;5114697;28;20031;-73
2022/10/19 04:07:24;;;;;;;0.35;0.08;;;;;;;3.33;81.70;102084.28;5114422;28;20429;-71
2022/10/19 04:09:50;;;;;;;4.47;0.10;;;;;;;3.32;81.96;102087.84;5115222;28;20015;-73
2022/10/19 04:12:15;;;;;;;0.93;0.15;;;;;;;3.33;81.81;102089.59;5097104;28;20028;-73
2022/10/19 04:14:41;;;;;;;2.20;0.30;;;;;;;3.31;81.78;102101.19;5096769;28;20392;-72
2022/10/19 04:17:06;;;;;;;1.67;0.10;;;;;;;3.28;81.91;102091.53;5096948;28;20472;-73
2022/10/19 04:19:32;;;;;;;1.15;0.13;;;;;;;3.32;81.80;102092.28;5115672;28;20023;-72
2022/10/19 04:21:58;;;;;;;1.13;0.10;;;;;;;3.22;82.39;102086.38;5116401;28;20486;-72
2022/10/19 04:24:24;;;;;;;0.85;0.10;;;;;;;3.21;82.48;102089.97;5097010;28;20027;-71
2022/10/19 04:26:52;;;;;;;0.95;0.20;;;;;;;3.20;83.54;102092.66;5115035;28;20031;-72
2022/10/19 04:29:20;;;;;;;2.63;0.20;;;;;;;3.22;82.90;102097.03;5097243;28;20434;-71
2022/10/19 04:31:48;;;;;;;1.67;0.20;;;;;;;3.29;83.43;102105.69;5095985;28;20034;-72
2022/10/19 04:34:13;;;;;;;2.30;0.38;;;;;;;3.21;83.66;102100.59;5114602;28;20058;-72
2022/10/19 04:36:39;;;;;;;2.40;0.13;;;;;;;3.18;83.47;102116.59;5114296;28;20067;-70
2022/10/19 04:39:06;;;;;;;0.20;0.05;;;;;;;3.10;83.67;102102.69;5113968;28;20081;-72
2022/10/19 04:41:32;;;;;;;3.08;0.20;;;;;;;3.12;83.70;102122.09;5096328;28;20028;-71
2022/10/19 04:44:00;;;;;;;0.38;0.10;;;;;;;3.06;83.63;102114.31;5096107;28;20032;-72
2022/10/19 04:46:27;;;;;;;1.65;0.20;;;;;;;3.08;83.48;102120.44;5114292;28;20020;-71
2022/10/19 04:48:53;;;;;;;4.40;0.38;;;;;;;3.13;83.72;102121.19;5113888;28;20032;-71
2022/10/19 04:51:19;;;;;;;1.45;0.52;;;;;;;3.14;83.54;102120.28;5095478;28;20123;-71
2022/10/19 04:53:45;;;;;;;1.65;0.10;;;;;;;3.13;83.22;102118.53;5116040;28;20020;-71
2022/10/19 04:56:20;;;;;;;3.85;0.20;;;;;;;3.08;83.74;102132.88;5123888;28;20058;-71
2022/10/19 04:58:46;;;;;;;1.70;0.52;;;;;;;3.16;83.66;102134.38;5101168;28;20147;-71
2022/10/19 05:01:14;;;;;;;1.95;0.10;;;;;;;3.15;84.01;102137.09;5099210;28;20092;-72
2022/10/19 05:03:40;;;;;;;1.23;0.22;;;;;;;3.13;83.88;102142.44;5113226;28;20034;-71
2022/10/19 05:06:07;;;;;;;2.55;0.10;;;;;;;3.07;84.43;102144.41;5113711;28;20044;-74
2022/10/19 05:08:33;;;;;;;0.77;0.13;;;;;;;3.12;83.68;102148.69;5095351;28;20051;-73
2022/10/19 05:11:18;;;;;;;4.40;0.50;;;;;;;3.13;83.90;102142.44;5095020;28;20031;-74
2022/10/19 05:13:44;;;;;;;4.75;0.20;;;;;;;3.07;84.35;102144.41;5112913;28;20073;-73
2022/10/19 05:16:13;;;;;;;5.03;0.20;;;;;;;3.13;84.09;102150.41;5113070;28;20031;-73
2022/10/19 05:18:39;;;;;;;1.23;0.10;;;;;;;3.10;84.13;102146.97;5093985;28;20353;-74
2022/10/19 05:21:10;;;;;;;1.35;0.20;;;;;;;3.08;83.96;102151.47;5112779;28;20035;-72
2022/10/19 05:23:37;;;;;;;4.53;0.22;;;;;;;2.97;84.16;102144.66;5113120;28;20399;-73
2022/10/19 05:26:08;;;;;;;2.42;0.17;;;;;;;3.03;84.30;102148.06;5112814;28;20031;-73
2022/10/19 05:28:34;;;;;;;0.93;0.20;;;;;;;3.05;83.96;102152.44;5094560;28;20027;-72
2022/10/19 05:31:15;;;;;;;1.02;0.30;;;;;;;3.00;84.22;102154.31;5093848;28;20467;-72
2022/10/19 05:33:42;;;;;;;2.80;1.02;;;;;;;3.00;84.23;102160.50;5093344;28;20050;-72
2022/10/19 05:36:19;;;;;;;1.67;0.22;;;;;;;3.04;84.33;102161.31;5112840;28;20035;-72
2022/10/19 05:38:47;;;;;;;3.08;0.52;;;;;;;3.04;84.35;102165.75;5094093;28;20027;-74
2022/10/19 05:41:13;;;;;;;3.15;0.20;;;;;;;3.07;83.90;102155.91;5093128;28;20024;-73
2022/10/19 05:43:40;;;;;;;0.85;0.15;;;;;;;3.06;83.25;102158.63;5112626;28;20024;-74
2022/10/19 05:46:12;;;;;;;2.47;0.30;;;;;;;3.01;83.21;102162.25;5112616;28;20039;-73
2022/10/19 05:48:38;;;;;;;3.90;0.30;;;;;;;3.05;83.31;102163.06;5111693;28;20475;-73
2022/10/19 05:51:07;;;;;;;0.73;0.30;;;;;;;3.07;83.76;102170.97;5093586;28;20028;-73
2022/10/19 05:53:34;;;;;;;2.40;0.22;;;;;;;3.09;83.90;102170.03;5111734;28;20031;-74
2022/10/19 05:55:59;;;;;;;2.83;0.32;;;;;;;3.08;82.96;102165.63;5093416;28;20035;-74
2022/10/19 05:58:26;;;;;;;1.80;0.10;;;;;;;3.12;83.01;102167.28;5111763;28;20059;-75
2022/10/19 06:00:57;;;;;;;3.95;0.30;;;;;;;3.19;82.81;102163.56;5111976;28;20045;-74
2022/10/19 06:03:24;;;;;;;6.00;0.40;;;;;;;3.13;83.09;102160.19;5111318;28;20020;-74
2022/10/19 06:05:51;;;;;;;2.22;0.30;;;;;;;3.14;83.39;102168.09;5111536;28;20457;-73
2022/10/19 06:08:18;;;;;;;2.13;0.20;;;;;;;3.28;83.13;102181.91;5092826;28;20028;-74
2022/10/19 06:10:44;;;;;;;1.50;0.20;;;;;;;3.27;83.01;102177.50;5112008;28;20450;-73
2022/10/19 06:13:11;;;;;;;2.35;0.30;;;;;;;3.24;83.22;102174.94;5112301;28;20486;-73
2022/10/19 06:15:39;;;;;;;4.40;0.40;;;;;;;3.35;83.01;102181.72;5111636;28;20032;-73
2022/10/19 06:18:09;;;;;;;4.93;0.60;;;;;;;3.37;83.05;102174.59;5111770;28;20121;-74
2022/10/19 06:20:37;;;;;;;3.75;0.98;;;;;;;3.43;82.31;102177.97;5093178;28;20026;-74
2022/10/19 06:23:04;;;;;;;1.35;0.10;;;;;;;3.53;82.06;102178.59;5092966;28;20452;-72
2022/10/19 06:25:31;;;;;;;1.02;0.47;;;;;;;3.62;81.67;102187.16;5092538;28;20046;-73
2022/10/19 06:27:57;;;;;;;4.45;0.73;;;;;;;3.45;82.17;102188.53;5093151;28;20023;-74
2022/10/19 06:30:23;;;;;;;1.25;0.22;;;;;;;3.43;81.79;102179.75;5110966;28;20435;-74
2022/10/19 06:32:49;;;;;;;1.35;0.43;;;;;;;3.57;81.58;102190.88;5112309;28;20054;-74
2022/10/19 06:35:15;;;;;;;3.63;0.15;;;;;;;3.63;81.44;102188.03;5092548;28;20032;-74
2022/10/19 06:37:41;;;;;;;2.95;0.30;;;;;;;3.65;80.97;102191.50;5093092;28;20023;-74
2022/10/19 06:40:08;;;;;;;4.50;0.77;;;;;;;3.69;80.83;102198.47;5092459;28;20031;-74
2022/10/19 06:42:37;;;;;;;1.83;0.20;;;;;;;3.67;80.52;102199.44;5093200;28;20031;-73
2022/10/19 06:45:07;;;;;;;1.27;0.30;;;;;;;3.62;80.38;102208.44;5111473;28;20028;-75
2022/10/19 06:47:33;;;;;;;3.67;1.52;;;;;;;3.62;80.78;102207.56;5111025;28;20535;-74
2022/10/19 06:49:59;;;;;;;4.10;0.40;;;;;;;3.79;80.82;102210.59;5111094;28;20031;-74
2022/10/19 06:52:25;;;;;;;3.90;0.50;;;;;;;3.80;80.12;102217.66;5092158;28;20035;-74
2022/10/19 06:54:51;;;;;;;2.50;0.28;;;;;;;3.91;80.22;102215.59;5092881;28;20368;-73
2022/10/19 06:57:16;;;;;;;5.80;0.38;;;;;;;3.88;79.68;102213.00;5111138;28;20028;-74
2022/10/19 06:59:43;;;;;;;1.38;0.30;;;;;;;3.95;79.53;102226.13;5110647;28;20043;-74
2022/10/19 07:02:11;;;;;;;1.65;0.47;;;;;;;4.00;78.86;102221.53;5111358;28;20031;-75
2022/10/19 07:04:37;;;;;;;3.72;0.25;;;;;;;4.18;78.49;102213.00;5111441;28;20031;-73
2022/10/19 07:07:03;;;;;;;1.17;0.22;;;;;;;4.31;77.63;102217.03;5092661;28;20027;-73
2022/10/19 07:09:28;;;;;;;0.82;0.30;;;;;;;4.43;77.23;102211.34;5091958;28;20476;-73
2022/10/19 07:11:54;;;;;;;0.55;0.13;;;;;;;4.40;76.70;102213.22;5111121;28;20104;-73
2022/10/19 07:14:23;;;;;;;3.92;0.30;;;;;;;4.37;77.02;102223.97;5092082;28;20032;-74
2022/10/19 07:16:50;;;;;;;0.57;0.17;;;;;;;4.53;76.87;102215.47;5110999;28;20027;-73
2022/10/19 07:19:16;;;;;;;0.50;0.10;;;;;;;5.28;74.49;102214.72;5092232;28;20372;-71
2022/10/19 07:21:43;;;;;;;1.88;0.10;;;;;;;4.93;74.90;102224.81;5111936;28;20085;-73
2022/10/19 07:24:09;;;;;;;2.80;0.65;;;;;;;4.50;76.86;102223.53;5092771;28;20019;-73
2022/10/19 07:26:35;;;;;;;2.05;0.13;;;;;;;4.58;77.34;102235.75;5110962;28;20338;-72
2022/10/19 07:29:02;;;;;;;4.60;2.05;;;;;;;4.69;76.31;102245.13;5110881;28;20934;-71
2022/10/19 07:31:29;;;;;;;2.45;0.30;;;;;;;4.66;77.11;102249.69;5092620;28;20106;-73
2022/10/19 07:34:00;;;;;;;1.10;0.50;;;;;;;4.76;76.24;102253.81;5111378;28;20437;-72
2022/10/19 07:36:27;;;;;;;2.95;0.43;;;;;;;4.69;76.75;102257.56;5092352;28;20114;-71
2022/10/19 07:38:53;;;;;;;1.63;0.20;;;;;;;4.82;77.13;102253.59;5111141;28;20035;-72
2022/10/19 07:41:21;;;;;;;2.45;0.70;;;;;;;5.00;75.85;102253.00;5112236;28;20077;-71
2022/10/19 07:43:49;;;;;;;5.53;1.83;;;;;;;5.04;75.10;102248.44;5115043;28;20066;-72
2022/10/19 07:46:18;;;;;;;0.98;0.40;;;;;;;5.04;75.58;102259.13;5096000;28;20438;-72
2022/10/19 07:48:44;;;;;;;0.65;0.20;;;;;;;5.02;75.55;102269.78;5096328;28;20395;-72
2022/10/19 07:51:11;;;;;;;1.15;0.30;;;;;;;5.06;75.56;102270.59;5096213;28;20023;-72
2022/10/19 07:53:37;;;;;;;2.90;0.20;;;;;;;5.20;75.30;102254.09;5096127;28;20027;-73
2022/10/19 07:56:09;;;;;;;3.65;0.15;;;;;;;5.38;74.33;102264.19;5114534;28;20024;-72
2022/10/19 07:58:36;;;;;;;3.67;0.30;;;;;;;5.16;74.32;102279.13;5095949;28;20039;-73
2022/10/19 08:01:23;;;;;;;0.95;0.10;;;;;;;5.24;74.76;102269.97;5114549;28;20031;-71
2022/10/19 08:03:52;;;;;;;2.20;0.20;;;;;;;5.47;74.34;102277.19;5096329;28;20027;-72
2022/10/19 08:06:18;;;;;;;2.00;0.10;;;;;;;5.73;73.46;102277.13;5114869;28;20035;-72
2022/10/19 08:08:45;;;;;;;1.15;0.20;;;;;;;5.59;72.56;102279.41;5096774;28;20030;-71
2022/10/19 08:11:19;;;;;;;1.63;0.25;;;;;;;5.38;74.02;102277.50;5096024;28;20030;-73
2022/10/19 08:13:45;;;;;;;2.45;0.40;;;;;;;5.54;73.65;102277.81;5114398;28;20043;-72
2022/10/19 08:16:39;;;;;;;2.20;0.20;;;;;;;5.51;73.64;102280.59;5095721;28;20040;-71
2022/10/19 08:19:08;;;;;;;3.22;0.40;;;;;;;5.44;73.42;102293.28;5114182;28;20019;-73
2022/10/19 08:21:35;;;;;;;2.05;0.30;;;;;;;5.56;73.80;102290.22;5114042;28;20028;-72
2022/10/19 08:24:01;;;;;;;1.42;0.22;;;;;;;5.56;73.30;102290.22;5095905;28;20454;-72
2022/10/19 08:26:28;;;;;;;3.90;0.60;;;;;;;5.65;73.39;102289.88;5114413;28;20102;-71
2022/10/19 08:28:59;;;;;;;1.88;0.20;;;;;;;5.64;73.61;102282.78;5095524;28;20383;-71
2022/10/19 08:31:24;;;;;;;1.35;0.20;;;;;;;5.66;72.55;102294.28;5113768;28;20118;-72
2022/10/19 08:33:50;;;;;;;1.58;0.20;;;;;;;5.73;72.91;102302.97;5095287;28;20023;-71
2022/10/19 08:36:18;;;;;;;1.35;0.10;;;;;;;5.78;72.61;102305.47;5113690;28;20042;-72
2022/10/19 08:38:47;;;;;;;2.05;0.30;;;;;;;5.87;72.76;102305.09;5113871;28;20028;-72
2022/10/19 08:41:21;;;;;;;1.10;0.10;;;;;;;5.76;71.94;102307.31;5094937;28;20024;-73
2022/10/19 08:43:55;;;;;;;1.02;0.50;;;;;;;5.85;72.71;102313.19;5095797;28;20051;-72
2022/10/19 08:46:32;;;;;;;1.02;0.20;;;;;;;5.93;71.87;102294.25;5114183;28;20161;-76
2022/10/19 08:48:59;;;;;;;2.35;0.20;;;;;;;5.94;72.21;102296.00;5113293;28;20151;-74
2022/10/19 08:51:27;;;;;;;3.40;0.20;;;;;;;5.95;71.99;102313.75;5113401;28;20080;-72
2022/10/19 08:53:59;;;;;;;4.65;0.63;;;;;;;6.00;71.69;102312.66;5112812;28;20101;-74
2022/10/19 08:56:39;;;;;;;3.72;0.20;;;;;;;6.37;70.84;102315.75;5113399;28;20031;-73
2022/10/19 08:59:25;;;;;;;0.60;0.30;;;;;;;6.84;69.21;102312.13;5113445;28;20079;-75
2022/10/19 09:02:13;;;;;;;0.40;0.10;;;;;;;7.38;66.96;102301.88;5113407;28;20032;-72
2022/10/19 09:04:41;;;;;;;1.63;0.43;;;;;;;7.49;66.37;102300.50;5095095;28;20028;-73
2022/10/19 09:07:36;;;;;;;1.45;0.22;;;;;;;7.84;65.71;102311.47;5112704;28;20037;-74
2022/10/19 09:10:14;;;;;;;5.35;1.20;;;;;;;8.23;65.07;102307.94;5094904;28;20604;-73
2022/10/19 09:12:46;;;;;;;1.50;0.60;;;;;;;7.93;65.10;102313.75;5112991;28;20038;-72
2022/10/19 09:15:24;;;;;;;1.38;0.35;;;;;;;8.58;64.37;102315.28;5112768;28;20115;-73
2022/10/19 09:17:49;;;;;;;0.55;0.30;;;;;;;8.28;63.42;102306.81;5094405;28;20039;-71
2022/10/19 09:20:17;;;;;;;4.70;0.70;;;;;;;7.94;64.05;102315.50;5112704;28;20031;-71
2022/10/19 09:22:43;;;;;;;3.50;0.52;;;;;;;8.50;63.40;102306.69;5093765;28;20096;-72
2022/10/19 09:25:17;;;;;;;3.05;0.70;;;;;;;8.44;62.65;102312.34;5112606;28;20040;-70
2022/10/19 09:27:47;;;;;;;1.48;0.82;;;;;;;8.51;63.33;102308.44;5112790;28;20043;-71
2022/10/19 09:30:21;;;;;;;2.22;1.13;;;;;;;8.57;62.22;102316.22;5112307;28;20036;-72
2022/10/19 09:32:59;;;;;;;2.85;1.10;;;;;;;8.11;63.89;102315.59;5112522;28;20058;-70
2022/10/19 09:35:33;;;;;;;2.90;0.60;;;;;;;8.68;62.59;102311.19;5111998;28;20026;-70
2022/10/19 09:37:59;;;;;;;2.80;1.40;;;;;;;8.51;62.82;102313.78;5093757;28;20028;-72
2022/10/19 09:40:27;;;;;;;0.73;0.50;;;;;;;8.37;62.44;102317.13;5112278;28;20031;-69
2022/10/19 09:42:57;;;;;;;3.15;0.30;;;;;;;8.84;62.48;102313.13;5111508;28;20475;-72
2022/10/19 09:45:23;;;;;;;2.85;0.30;;;;;;;9.07;61.21;102315.59;5112420;28;20028;-69
2022/10/19 09:47:49;;;;;;;3.15;1.40;;;;;;;9.07;61.18;102307.53;5093206;28;20063;-69
2022/10/19 09:50:24;;;;;;;4.63;1.25;;;;;;;8.46;62.57;102310.47;5093666;28;20084;-71
2022/10/19 09:52:54;;;;;;;2.38;0.65;;;;;;;9.07;61.72;102310.22;5111633;28;20369;-69
2022/10/19 09:55:24;;;;;;;1.60;0.50;;;;;;;9.06;61.62;102319.19;5092831;28;20040;-69
2022/10/19 09:57:59;;;;;;;4.10;0.75;;;;;;;9.49;61.19;102303.63;5111126;28;20027;-69
2022/10/19 10:00:33;;;;;;;1.67;0.52;;;;;;;9.98;59.20;102309.13;5093678;28;20028;-70
2022/10/19 10:02:59;;;;;;;3.75;0.20;;;;;;;9.51;59.24;102316.03;5092717;28;20142;-68
2022/10/19 10:05:37;;;;;;;1.73;0.63;;;;;;;10.19;58.82;102316.91;5111705;28;20063;-70
2022/10/19 10:08:10;;;;;;;1.83;0.15;;;;;;;9.15;60.33;102321.44;5112228;28;20138;-69
2022/10/19 10:10:38;;;;;;;1.42;0.40;;;;;;;9.72;59.14;102311.34;5111952;28;20031;-68
2022/10/19 10:13:05;;;;;;;2.30;0.70;;;;;;;9.67;58.66;102329.53;5111143;28;20498;-68
2022/10/19 10:15:58;;;;;;;2.67;0.65;;;;;;;9.11;59.79;102322.53;5093180;28;20080;-69
2022/10/19 10:18:27;;;;;;;1.60;0.60;;;;;;;9.13;60.58;102328.69;5092863;28;20111;-69
2022/10/19 10:21:00;;;;;;;2.10;0.75;;;;;;;8.85;60.96;102328.28;5111388;28;20031;-68
2022/10/19 10:23:31;;;;;;;1.55;0.47;;;;;;;8.96;59.65;102320.59;5093054;28;20043;-67
2022/10/19 10:25:59;;;;;;;1.90;0.32;;;;;;;8.64;60.92;102314.97;5111127;28;20034;-67
2022/10/19 10:28:27;;;;;;;0.85;0.35;;;;;;;8.50;61.16;102317.41;5111248;28;20028;-67
2022/10/19 10:31:04;;;;;;;2.10;0.60;;;;;;;8.90;60.69;102304.78;5093204;28;20035;-70
2022/10/19 10:33:34;;;;;;;1.30;0.43;;;;;;;9.42;58.85;102297.72;5092463;28;20130;-69
2022/10/19 10:36:08;;;;;;;3.63;0.75;;;;;;;9.18;60.00;102310.53;5110551;28;20373;-68
2022/10/19 10:38:40;;;;;;;3.78;0.90;;;;;;;9.67;59.03;102291.94;5110776;28;20131;-69
2022/10/19 10:41:13;;;;;;;1.17;0.50;;;;;;;9.43;59.78;102298.59;5092300;28;20115;-69
2022/10/19 10:43:51;;;;;;;3.92;1.10;;;;;;;9.09;59.90;102304.78;5110645;28;20027;-67
2022/10/19 10:46:21;;;;;;;1.30;0.73;;;;;;;9.41;59.21;102289.75;5092829;28;20395;-68
2022/10/19 10:49:13;;;;;;;1.30;0.60;;;;;;;9.18;58.75;102294.44;5111212;28;20043;-69
2022/10/19 10:51:46;;;;;;;2.40;1.20;;;;;;;8.90;59.98;102299.41;5092962;28;20581;-68
2022/10/19 10:54:21;;;;;;;4.80;0.85;;;;;;;8.84;59.68;102305.09;5093166;28;20031;-68
2022/10/19 10:57:05;;;;;;;2.70;0.73;;;;;;;8.99;59.05;102298.97;5110878;28;20031;-69
2022/10/19 10:59:43;;;;;;;0.37;0.17;;;;;;;8.94;58.50;102301.91;5092931;28;20043;-68
2022/10/19 11:02:45;;;;;;;0.60;0.30;;;;;;;8.77;59.03;102306.34;5111267;28;20325;-68
2022/10/19 11:05:28;;;;;;;4.57;2.50;;;;;;;8.95;59.14;102302.75;5092430;28;20499;-67
2022/10/19 11:08:17;;;;;;;4.93;0.93;;;;;;;9.11;58.79;102301.06;5092162;28;20161;-68
2022/10/19 11:10:48;;;;;;;0.95;0.28;;;;;;;9.12;58.66;102312.66;5092217;28;20028;-67
2022/10/19 11:13:37;;;;;;;2.65;0.50;;;;;;;9.19;59.13;102306.91;5111027;28;20047;-68
2022/10/19 11:16:13;;;;;;;4.20;0.50;;;;;;;9.24;59.16;102298.66;5079734;28;20050;-67
2022/10/19 11:18:50;;;;;;;2.00;0.25;;;;;;;9.29;59.24;102310.88;5115207;28;20047;-68
2022/10/19 11:21:30;;;;;;;0.68;0.28;;;;;;;9.22;58.54;102311.25;5096885;28;20028;-67
2022/10/19 11:24:15;;;;;;;2.65;0.57;;;;;;;9.14;58.62;102308.97;5115471;28;20024;-68
2022/10/19 11:26:54;;;;;;;4.55;0.30;;;;;;;9.27;59.14;102315.47;5096537;28;20407;-68
2022/10/19 11:29:33;;;;;;;0.77;0.10;;;;;;;9.02;59.43;102322.97;5096614;28;20031;-68
2022/10/19 11:31:59;;;;;;;0.70;0.20;;;;;;;8.57;59.52;102323.38;5114711;28;20115;-68
2022/10/19 11:34:48;;;;;;;0.95;0.17;;;;;;;8.60;60.06;102328.59;5096365;28;20115;-68
2022/10/19 11:37:55;;;;;;;3.28;0.55;;;;;;;8.77;60.65;102325.97;5095703;28;20114;-69
2022/10/19 11:40:34;;;;;;;0.73;0.20;;;;;;;8.92;60.04;102319.88;5096345;28;20502;-69
2022/10/19 11:43:28;;;;;;;1.13;0.20;;;;;;;9.14;59.54;102325.06;5114744;28;20043;-68
2022/10/19 11:46:03;;;;;;;1.30;0.28;;;;;;;9.04;59.40;102329.13;5096502;28;20028;-69
2022/10/19 11:48:51;;;;;;;2.58;0.45;;;;;;;8.95;59.67;102327.78;5096657;28;20039;-69
2022/10/19 11:51:38;;;;;;;1.55;0.17;;;;;;;9.12;59.51;102318.03;5114178;28;20369;-69